Latest Coastal Weather Observations for Bundaberg

IDQ60701

Issued at 9:21 am EST Sunday 26 April 2015 (issued every 10 minutes, with the page automatically refreshed every 10 minutes)

About coastal observations | Map of coastal stations | Coastal observations for QLD | Marine services | Other Formats
Station Details ID: 039128 Name: BUNDABERG AERO Lat: -24.91 Lon: 152.32 Height: 30.82 m
Data from the previous 72 hours. | See also: Recent months at Bundaberg
Date/Time
EST
Temp

°C
Wind Pressure Rain
since 9am
mm
Weather Cloud Vis
km
Sea
Height
m
Swell
Dir
 
Speed
knots
Gust
knots
hPa Trend Height
m
Period
s
Dir
26/09:00am 20.8 SW 17 28 1014.0 - 0.0 - - 10 - - - -
26/08:30am 20.0 SW 15 29 1013.8 - 0.0 - - 10 - - - -
26/08:26am 20.0 SW 15 25 1013.8 - 0.0 - - 10 - - - -
26/08:00am 19.4 SW 13 20 1013.8 - 0.0 - - 10 - - - -
26/07:30am 18.9 SW 15 22 1013.7 - 0.0 - - 10 - - - -
26/07:00am 18.3 SW 11 17 1013.2 - 0.0 - - 10 - - - -
26/06:30am 17.8 SW 9 14 1012.6 - 0.0 - - 10 - - - -
26/06:00am 18.0 SW 8 12 1012.2 - 0.0 - - 10 - - - -
26/05:30am 18.1 SW 8 12 1011.7 - 0.0 - - 10 - - - -
26/05:00am 17.8 SW 8 12 1011.4 - 0.0 - - 10 - - - -
26/04:30am 18.1 SW 7 9 1011.1 - 0.0 - - 10 - - - -
26/04:00am 18.0 SW 6 9 1010.8 - 0.0 - - 10 - - - -
26/03:30am 18.0 SW 4 6 1010.6 - 0.0 - - 10 - - - -
26/03:00am 16.5 W 6 7 1010.6 - 0.0 - - 10 - - - -
26/02:30am 17.1 W 8 10 1010.5 - 0.0 - - 10 - - - -
26/02:00am 17.4 W 7 9 1010.5 - 0.0 - - 10 - - - -
26/01:30am 17.4 WNW 8 9 1010.6 - 0.0 - - 10 - - - -
26/01:00am 17.1 WNW 7 8 1010.2 - 0.0 - - 10 - - - -
26/12:30am 16.7 NW 5 6 1010.3 - 0.0 - - 10 - - - -
 
Date/Time
EST
Temp

°C
Wind Pressure Rain
since 9am
mm
Weather Cloud Vis
km
Sea
Height
m
Swell
Dir
 
Speed
knots
Gust
knots
hPa Trend Height
m
Period
s
Dir
25/11:30pm 17.9 WNW 6 6 1010.4 - 0.0 - - 10 - - - -
25/11:00pm 18.8 NNW 6 7 1010.5 - 0.0 - - 10 - - - -
25/10:30pm 19.1 NW 5 7 1010.8 - 0.0 - - 10 - - - -
25/10:00pm 20.0 WNW 6 8 1011.0 - 0.0 - Partly cloudy 10 - - - -
25/09:30pm 20.5 NNW 7 9 1011.0 - 0.0 - - 10 - - - -
25/09:00pm 20.6 NNW 9 10 1010.9 - 0.0 - - 10 - - - -
25/08:30pm 20.6 NNW 7 8 1010.8 - 0.0 - - 10 - - - -
25/08:00pm 20.5 NNW 8 9 1010.6 - 0.0 - - 10 - - - -
25/07:30pm 20.8 NNW 7 9 1010.3 - 0.0 - - 10 - - - -
25/07:00pm 21.4 NNW 8 9 1009.8 - 0.0 - - 10 - - - -
25/06:30pm 21.8 NNW 8 9 1009.6 - 0.0 - - 10 - - - -
25/06:00pm 22.6 NNW 8 9 1009.4 - 0.0 - - 10 - - - -
25/05:30pm 23.8 N 9 11 1009.1 - 0.0 - - 10 - - - -
25/05:00pm 24.8 N 10 13 1008.8 - 0.0 - - 10 - - - -
25/04:30pm 25.9 N 12 16 1008.5 - 0.0 - - 10 - - - -
25/04:00pm 26.9 N 13 15 1008.2 - 0.0 - - 10 - - - -
25/03:30pm 27.5 N 13 15 1008.0 - 0.0 - - 10 - - - -
25/03:00pm 28.6 N 10 14 1008.0 - 0.0 - - 10 - - - -
25/02:30pm 29.4 NNE 6 11 1007.9 - 0.0 - - 10 - - - -
25/02:00pm 29.8 NNW 5 9 1008.1 - 0.0 - - 10 - - - -
25/01:30pm 29.4 WNW 4 9 1008.4 - 0.0 - - 10 - - - -
25/01:00pm 29.0 WNW 3 6 1008.8 - 0.0 - - 10 - - - -
25/12:30pm 28.7 N 5 7 1009.3 - 0.0 - - 10 - - - -
25/12:00pm 28.1 W 4 7 1009.7 - 0.0 - - 10 - - - -
25/11:30am 27.5 W 5 9 1010.2 - 0.0 - - 10 - - - -
25/11:00am 26.9 WNW 4 7 1010.9 - 0.0 - - 10 - - - -
25/10:30am 26.3 WNW 6 8 1011.2 - 0.0 - - 10 - - - -
25/10:00am 25.4 W 7 9 1011.4 - 0.0 - - 10 - - - -
25/09:30am 24.3 WSW 7 9 1011.7 - 0.0 - - 10 - - - -
25/09:00am 23.1 SW 6 8 1011.7 - 0.0 - - 10 - - - -
25/08:30am 21.4 SW 5 7 1011.7 - 0.0 - - 10 - - - -
25/08:00am 19.5 WSW 4 7 1011.6 - 0.0 - - 10 - - - -
25/07:30am 17.8 W 4 6 1011.3 - 0.0 - - 10 - - - -
25/07:00am 16.3 WSW 5 6 1011.1 - 0.0 - - 10 - - - -
25/06:30am 14.3 WSW 3 5 1010.9 - 0.0 - - 10 - - - -
25/06:00am 14.2 WSW 4 5 1010.7 - 0.0 - - 10 - - - -
25/05:30am 13.6 WSW 4 5 1010.4 - 0.0 - - 10 - - - -
25/05:00am 14.2 CALM 0 0 1010.3 - 0.0 - - 10 - - - -
25/04:30am 14.2 CALM 0 0 1009.9 - 0.0 - - 10 - - - -
25/04:00am 14.3 CALM 0 0 1009.9 - 0.0 - - 10 - - - -
25/03:30am 14.8 CALM 0 0 1010.0 - 0.0 - - 10 - - - -
25/03:00am 14.8 CALM 0 0 1010.0 - 0.0 - - 10 - - - -
25/02:30am 15.1 CALM 0 0 1010.0 - 0.0 - - 10 - - - -
25/02:00am 16.0 CALM 0 0 1010.1 - 0.0 - - 10 - - - -
25/01:30am 16.2 CALM 0 0 1010.1 - 0.0 - - 10 - - - -
25/01:00am 16.0 W 3 4 1010.2 - 0.0 - - 10 - - - -
25/12:30am 16.5 W 5 6 1010.6 - 0.0 - - 10 - - - -
25/12:00am 16.1 CALM 0 0 1010.7 - 0.0 - - 10 - - - -
 
Date/Time
EST
Temp

°C
Wind Pressure Rain
since 9am
mm
Weather Cloud Vis
km
Sea
Height
m
Swell
Dir
 
Speed
knots
Gust
knots
hPa Trend Height
m
Period
s
Dir
24/11:30pm 16.4 CALM 0 0 1010.5 - 0.0 - - 10 - - - -
24/11:00pm 16.8 CALM 0 0 1010.7 - 0.0 - - 10 - - - -
24/10:30pm 17.4 CALM 0 0 1010.8 - 0.0 - - 10 - - - -
24/10:00pm 18.1 NW 1 3 1010.8 - 0.0 - - 10 - - - -
24/09:30pm 18.1 NW 3 4 1010.9 - 0.0 - - 10 - - - -
24/09:00pm 18.4 WNW 4 4 1010.7 - 0.0 - - 10 - - - -
24/08:30pm 18.9 N 5 6 1010.5 - 0.0 - - 10 - - - -
24/08:00pm 18.6 NNW 6 7 1010.3 - 0.0 - - 10 - - - -
24/07:30pm 19.2 NNW 5 7 1010.2 - 0.0 - - 10 - - - -
24/07:00pm 19.7 N 6 7 1009.8 - 0.0 - - 10 - - - -
24/06:30pm 20.9 N 5 7 1009.5 - 0.0 - - 10 - - - -
24/06:00pm 21.9 N 6 8 1009.2 - 0.0 - - 10 - - - -
24/05:30pm 22.7 N 8 10 1008.9 - 0.0 - - 10 - - - -
24/05:00pm 23.7 NNE 8 10 1008.4 - 0.0 - - 10 - - - -
24/04:30pm 24.8 NNE 10 12 1008.1 - 0.0 - - 10 - - - -
24/04:00pm 25.6 NNE 10 12 1007.9 - 0.0 - - 10 - - - -
24/03:30pm 25.9 NNE 12 16 1007.6 - 0.0 - - 10 - - - -
24/03:00pm 26.3 NNE 8 11 1007.7 - 0.0 - - 10 - - - -
24/02:30pm 27.9 W 6 9 1007.7 - 0.0 - - 10 - - - -
24/02:00pm 27.7 WSW 6 11 1008.0 - 0.0 - - 10 - - - -
24/01:30pm 27.1 NW 6 9 1008.5 - 0.0 - - 10 - - - -
24/01:00pm 26.5 WSW 6 9 1008.8 - 0.0 - - 10 - - - -
24/12:30pm 26.7 SSW 6 9 1009.1 - 0.0 - - 10 - - - -
24/12:00pm 26.6 WSW 4 8 1009.5 - 0.0 - - 10 - - - -
24/11:30am 25.7 S 3 6 1010.0 - 0.0 - - 10 - - - -
24/11:00am 25.4 WSW 6 8 1010.7 - 0.0 - - 10 - - - -
24/10:30am 24.7 WSW 5 7 1011.3 - 0.0 - - 10 - - - -
24/10:00am 23.5 SW 4 7 1011.4 - 0.0 - - 10 - - - -
24/09:30am 22.6 WSW 5 7 1012.0 - 0.0 - - 10 - - - -
24/09:00am 21.6 SW 6 9 1012.0 - 0.0 - - 10 - - - -
24/08:30am 19.9 SW 5 6 1011.5 - 0.0 - - 10 - - - -
24/08:00am 17.4 SW 4 6 1011.6 - 0.0 - - 10 - - - -
24/07:30am 16.6 W 4 6 1011.3 - 0.0 - - 10 - - - -
24/07:00am 15.3 CALM 0 0 1010.9 - 0.0 - - 10 - - - -
24/06:30am 15.0 WSW 5 8 1010.9 - 0.0 - - 10 - - - -
24/06:00am 15.2 WSW 6 7 1010.4 - 0.0 - Mostly clear 10 - - - -
24/05:30am 14.6 WSW 5 6 1010.1 - 0.0 - - 10 - - - -
24/05:00am 13.8 WSW 3 4 1009.9 - 0.0 - - 10 - - - -
24/04:30am 13.5 WSW 5 6 1009.9 - 0.0 - - 10 - - - -
24/04:00am 13.8 WSW 4 5 1010.0 - 0.0 - - 10 - - - -
24/03:30am 13.9 CALM 0 3 1010.0 - 0.0 - - 10 - - - -
24/03:00am 14.4 CALM 0 0 1010.2 - 0.0 - Mostly clear 10 - - - -
24/02:30am 14.4 CALM 0 0 1010.4 - 0.0 - - 10 - - - -
24/02:00am 14.5 CALM 0 0 1010.6 - 0.0 - - 10 - - - -
24/01:30am 14.8 CALM 0 0 1010.8 - 0.0 - - 10 - - - -
24/01:00am 15.0 WSW 2 5 1011.0 - 0.0 - - 10 - - - -
24/12:30am 14.7 WSW 4 5 1011.4 - 0.0 - - 10 - - - -
24/12:00am 14.9 W 3 4 1011.3 - 0.0 - - 10 - - - -
 
Date/Time
EST
Temp

°C
Wind Pressure Rain
since 9am
mm
Weather Cloud Vis
km
Sea
Height
m
Swell
Dir
 
Speed
knots
Gust
knots
hPa Trend Height
m
Period
s
Dir
23/11:30pm 14.8 CALM 0 3 1011.4 - 0.0 - - 10 - - - -
23/11:00pm 14.9 CALM 0 0 1011.5 - 0.0 - - 10 - - - -
23/10:30pm 15.3 CALM 0 0 1011.3 - 0.0 - - 10 - - - -
23/10:00pm 15.6 CALM 0 0 1011.5 - 0.0 - - 10 - - - -
23/09:30pm 16.0 CALM 0 0 1011.5 - 0.0 - - 10 - - - -
23/09:00pm 16.5 CALM 0 0 1011.5 - 0.0 - - 10 - - - -
23/08:30pm 16.8 CALM 0 0 1011.5 - 0.0 - - 10 - - - -
23/08:00pm 17.3 CALM 0 0 1011.1 - 0.0 - - 10 - - - -
23/07:30pm 17.2 CALM 0 0 1011.0 - 0.0 - - 10 - - - -
23/07:00pm 17.5 CALM 0 0 1010.6 - 0.0 - - 10 - - - -
23/06:30pm 18.2 NNE 2 3 1010.3 - 0.0 - - 10 - - - -
23/06:00pm 19.8 NE 5 5 1010.0 - 0.0 - - 10 - - - -
23/05:30pm 20.6 NE 5 5 1009.6 - 0.0 - - 10 - - - -
23/05:00pm 22.1 NE 8 11 1009.1 - 0.0 - - 10 - - - -
23/04:30pm 23.2 NE 8 10 1009.0 - 0.0 - - 10 - - - -
23/04:00pm 24.0 NE 9 11 1008.7 - 0.0 - - 10 - - - -
23/03:30pm 26.0 S 2 6 1008.9 - 0.0 - - 10 - - - -
23/03:00pm 25.7 WSW 5 9 1009.0 - 0.0 - - 10 - - - -
23/02:30pm 25.3 SSW 8 11 1009.2 - 0.0 - - 10 - - - -
23/02:00pm 25.4 S 5 8 1009.4 - 0.0 - - 10 - - - -
23/01:30pm 25.2 S 5 10 1009.7 - 0.0 - - 10 - - - -
23/01:00pm 24.9 SW 6 9 1010.3 - 0.0 - - 10 - - - -
23/12:30pm 24.5 SW 6 11 1011.0 - 0.0 - - 10 - - - -
23/12:00pm 23.7 SW 7 10 1011.6 - 0.0 - - 10 - - - -
23/11:30am 22.8 S 7 9 1012.2 - 0.0 - - 10 - - - -
23/11:00am 22.7 SSW 7 12 1012.9 - 0.0 - - 10 - - - -
23/10:30am 22.1 S 8 12 1013.2 - 0.0 - - 10 - - - -
23/10:00am 21.3 S 9 13 1013.6 - 0.0 - - 10 - - - -
23/09:30am 20.8 S 9 14 1013.7 - 0.0 - - 10 - - - -

Other Formats:

Comma delimited format used in spreadsheet applications
http://www.bom.gov.au/fwo/IDQ60701/IDQ60701.94387.axf

JavaScript Object Notation format (JSON) in row-major order
http://www.bom.gov.au/fwo/IDQ60701/IDQ60701.94387.json